createdAt,value
2022-08-20T00:02:10.838Z,2.25
2022-08-20T00:04:39.610Z,2.40
2022-08-20T00:07:07.741Z,2.50
2022-08-20T00:09:36.608Z,2.13
2022-08-20T00:12:05.763Z,2.28
2022-08-20T00:14:34.003Z,2.10
2022-08-20T00:17:02.569Z,1.92
2022-08-20T00:19:30.504Z,2.08
2022-08-20T00:21:59.343Z,2.78
2022-08-20T00:24:30.814Z,2.33
2022-08-20T00:27:01.737Z,2.33
2022-08-20T00:29:30.910Z,2.10
2022-08-20T00:31:58.678Z,2.40
2022-08-20T00:34:26.418Z,1.73
2022-08-20T00:36:53.997Z,2.88
2022-08-20T00:39:21.622Z,2.40
2022-08-20T00:41:49.322Z,2.08
2022-08-20T00:44:18.602Z,2.28
2022-08-20T00:46:47.190Z,1.98
2022-08-20T00:49:24.678Z,2.30
2022-08-20T00:51:53.011Z,2.00
2022-08-20T00:54:20.643Z,2.30
2022-08-20T00:56:50.826Z,2.63
2022-08-20T00:59:21.854Z,2.35
2022-08-20T01:01:55.131Z,2.17
2022-08-20T01:04:26.223Z,2.20
2022-08-20T01:06:54.013Z,2.40
2022-08-20T01:09:49.657Z,2.95
2022-08-20T01:12:10.332Z,2.50
2022-08-20T01:14:40.865Z,2.67
2022-08-20T01:17:09.176Z,2.17
2022-08-20T01:22:27.547Z,2.72
2022-08-20T01:25:02.270Z,2.45
2022-08-20T01:27:31.197Z,2.28
2022-08-20T01:30:06.217Z,2.42
2022-08-20T01:32:34.658Z,2.28
2022-08-20T01:35:02.429Z,1.92
2022-08-20T01:37:31.501Z,2.00
2022-08-20T01:39:59.628Z,2.05
2022-08-20T01:42:58.967Z,2.08
2022-08-20T01:45:30.442Z,1.92
2022-08-20T01:47:59.262Z,2.17
2022-08-20T01:50:28.477Z,2.00
2022-08-20T01:52:56.102Z,2.38
2022-08-20T01:55:23.841Z,2.10
2022-08-20T01:57:51.546Z,1.98
2022-08-20T02:00:20.481Z,2.00
2022-08-20T02:02:50.465Z,3.22
2022-08-20T02:05:18.787Z,2.00
2022-08-20T02:07:46.551Z,1.88
2022-08-20T02:10:15.222Z,2.03
2022-08-20T02:12:42.947Z,1.95
2022-08-20T02:15:11.218Z,2.15
2022-08-20T02:17:39.598Z,1.90
2022-08-20T02:20:12.401Z,2.00
2022-08-20T02:22:49.956Z,2.00
2022-08-20T02:25:19.393Z,2.30
2022-08-20T02:27:48.814Z,1.90
2022-08-20T02:30:19.977Z,2.30
2022-08-20T02:32:56.887Z,2.10
2022-08-20T02:35:25.454Z,1.90
2022-08-20T02:37:54.084Z,2.03
2022-08-20T02:40:30.374Z,1.90
2022-08-20T02:43:01.661Z,1.95
2022-08-20T02:45:30.602Z,2.10
2022-08-20T02:47:58.963Z,2.00
2022-08-20T02:50:27.499Z,2.08
2022-08-20T02:52:55.195Z,1.85
2022-08-20T02:55:27.966Z,2.00
2022-08-20T02:58:00.259Z,2.10
2022-08-20T03:00:38.528Z,1.65
2022-08-20T03:03:10.710Z,1.88
2022-08-20T03:05:39.766Z,2.45
2022-08-20T03:08:09.373Z,2.22
2022-08-20T03:10:37.862Z,1.90
2022-08-20T03:13:05.790Z,2.20
2022-08-20T03:15:34.058Z,1.98
2022-08-20T03:18:02.025Z,1.98
2022-08-20T03:20:30.256Z,2.15
2022-08-20T03:22:58.305Z,1.85
2022-08-20T03:25:26.103Z,1.85
2022-08-20T03:27:55.085Z,1.83
2022-08-20T03:30:23.857Z,1.92
2022-08-20T03:32:51.676Z,2.10
2022-08-20T03:35:20.169Z,1.88
2022-08-20T03:37:48.555Z,1.60
2022-08-20T03:40:19.133Z,1.83
2022-08-20T03:42:46.777Z,2.17
2022-08-20T03:45:19.796Z,1.90
2022-08-20T03:47:48.670Z,1.95
2022-08-20T03:50:22.754Z,1.90
2022-08-20T03:52:51.666Z,1.80
2022-08-20T03:55:19.645Z,2.30
2022-08-20T03:57:57.876Z,1.70
2022-08-20T04:00:28.038Z,1.95
2022-08-20T04:02:57.159Z,1.60
2022-08-20T04:05:28.386Z,2.17
2022-08-20T04:08:02.870Z,2.25
2022-08-20T04:10:31.942Z,1.70
2022-08-20T04:12:59.579Z,1.90
2022-08-20T04:15:27.895Z,2.00
2022-08-20T04:17:55.642Z,2.00
2022-08-20T04:20:25.911Z,2.10
2022-08-20T04:22:59.319Z,1.88
2022-08-20T04:25:29.723Z,2.03
2022-08-20T04:28:01.989Z,1.67
2022-08-20T04:30:30.032Z,2.20
2022-08-20T04:32:58.842Z,2.00
2022-08-20T04:35:27.238Z,2.42
2022-08-20T04:38:08.933Z,2.20
2022-08-20T04:40:56.020Z,2.00
2022-08-20T04:43:24.344Z,2.70
2022-08-20T04:45:53.645Z,2.38
2022-08-20T04:48:23.908Z,2.17
2022-08-20T04:50:53.768Z,2.10
2022-08-20T04:53:25.904Z,2.03
2022-08-20T04:55:55.140Z,2.25
2022-08-20T04:58:26.253Z,1.83
2022-08-20T05:00:55.799Z,2.50
2022-08-20T05:03:28.923Z,2.17
2022-08-20T05:05:56.953Z,2.15
2022-08-20T05:08:25.622Z,1.90
2022-08-20T05:10:59.882Z,2.00
2022-08-20T05:13:42.916Z,2.22
2022-08-20T05:16:10.614Z,2.15
2022-08-20T05:18:38.273Z,2.13
2022-08-20T05:21:06.112Z,2.50
2022-08-20T05:23:35.103Z,2.50
2022-08-20T05:26:07.670Z,2.28
2022-08-20T05:28:36.980Z,2.20
2022-08-20T05:31:23.635Z,2.67
2022-08-20T05:34:11.533Z,2.70
2022-08-20T05:36:43.954Z,2.63
2022-08-20T05:39:13.351Z,2.50
2022-08-20T05:41:41.495Z,2.20
2022-08-20T05:44:10.927Z,2.30
2022-08-20T05:46:41.906Z,2.30
2022-08-20T05:49:10.535Z,2.35
2022-08-20T05:51:38.266Z,2.25
2022-08-20T05:54:07.153Z,2.58
2022-08-20T05:56:35.004Z,2.45
2022-08-20T05:59:04.169Z,2.33
2022-08-20T06:01:32.176Z,2.72
2022-08-20T06:04:18.713Z,3.22
2022-08-20T06:06:47.484Z,2.00
2022-08-20T06:09:31.481Z,1.70
2022-08-20T06:12:04.437Z,2.25
2022-08-20T06:14:32.783Z,2.28
2022-08-20T06:17:19.394Z,2.33
2022-08-20T06:19:50.350Z,2.28
2022-08-20T06:22:24.640Z,1.65
2022-08-20T06:24:54.053Z,2.13
2022-08-20T06:27:21.837Z,1.80
2022-08-20T06:29:49.582Z,1.92
2022-08-20T06:32:17.313Z,1.95
2022-08-20T06:34:49.863Z,1.77
2022-08-20T06:37:23.305Z,2.13
2022-08-20T06:40:01.012Z,1.67
2022-08-20T06:42:28.750Z,2.03
2022-08-20T06:44:56.563Z,2.00
2022-08-20T06:47:24.184Z,2.35
2022-08-20T06:49:51.998Z,1.90
2022-08-20T06:52:19.784Z,2.45
2022-08-20T06:54:57.757Z,2.25
2022-08-20T06:57:25.962Z,2.05
2022-08-20T06:59:55.516Z,2.75
2022-08-20T07:02:28.464Z,2.33
2022-08-20T07:04:58.148Z,3.42
2022-08-20T07:07:25.906Z,2.63
2022-08-20T07:10:06.730Z,3.17
2022-08-20T07:12:36.469Z,1.83
2022-08-20T07:15:08.451Z,2.35
2022-08-20T07:17:36.479Z,2.25
2022-08-20T07:20:12.111Z,1.83
2022-08-20T07:22:39.759Z,1.83
2022-08-20T07:25:08.622Z,2.08
2022-08-20T07:27:36.637Z,1.95
2022-08-20T07:30:24.527Z,2.00
2022-08-20T07:32:52.321Z,2.30
2022-08-20T07:35:20.793Z,1.80
2022-08-20T07:37:50.040Z,1.88
2022-08-20T07:40:26.065Z,1.73
2022-08-20T07:42:55.016Z,1.88
2022-08-20T07:45:23.213Z,1.80
2022-08-20T07:47:51.591Z,1.75
2022-08-20T07:50:20.263Z,1.77
2022-08-20T07:52:48.449Z,1.85
2022-08-20T07:55:16.983Z,1.80
2022-08-20T07:57:46.808Z,2.05
2022-08-20T08:00:15.185Z,1.88
2022-08-20T08:02:42.875Z,1.30
2022-08-20T08:05:11.031Z,1.40
2022-08-20T08:07:39.413Z,1.90
2022-08-20T08:10:12.705Z,1.58
2022-08-20T08:12:45.353Z,2.55
2022-08-20T08:15:15.662Z,1.45
2022-08-20T08:17:45.051Z,2.15
2022-08-20T08:20:13.287Z,1.73
2022-08-20T08:22:44.187Z,1.98
2022-08-20T08:25:13.026Z,1.98
2022-08-20T08:27:41.321Z,1.67
2022-08-20T08:30:10.273Z,1.60
2022-08-20T08:32:58.535Z,1.60
2022-08-20T08:35:26.500Z,1.90
2022-08-20T08:37:54.332Z,1.52
2022-08-20T08:40:22.791Z,1.75
2022-08-20T08:42:55.748Z,1.45
2022-08-20T08:45:23.633Z,1.30
2022-08-20T08:47:51.596Z,1.73
2022-08-20T08:50:52.992Z,1.35
2022-08-20T08:53:31.233Z,1.80
2022-08-20T08:55:59.902Z,1.35
2022-08-20T08:58:28.037Z,1.65
2022-08-20T09:00:57.628Z,1.70
2022-08-20T09:03:33.468Z,1.52
2022-08-20T09:06:01.947Z,1.70
2022-08-20T09:08:48.354Z,1.80
2022-08-20T09:11:16.635Z,1.65
2022-08-20T09:13:44.965Z,1.60
2022-08-20T09:16:13.297Z,1.75
2022-08-20T09:18:41.013Z,1.45
2022-08-20T09:21:09.530Z,1.77
2022-08-20T09:23:37.177Z,1.98
2022-08-20T09:26:04.880Z,1.70
2022-08-20T09:28:34.966Z,1.85
2022-08-20T09:31:04.900Z,1.55
2022-08-20T09:33:34.648Z,1.60
2022-08-20T09:36:02.376Z,1.73
2022-08-20T09:38:30.114Z,2.03
2022-08-20T09:40:57.842Z,3.00
2022-08-20T09:43:25.511Z,2.20
2022-08-20T09:45:53.128Z,2.25
2022-08-20T09:48:20.802Z,2.72
2022-08-20T09:50:57.660Z,1.90
2022-08-20T09:53:25.411Z,2.10
2022-08-20T09:55:54.069Z,2.38
2022-08-20T09:58:41.349Z,2.20
2022-08-20T10:01:14.347Z,2.17
2022-08-20T10:03:42.697Z,1.85
2022-08-20T10:06:11.300Z,1.88
2022-08-20T10:08:39.135Z,1.58
2022-08-20T10:11:06.828Z,2.10
2022-08-20T10:13:34.513Z,1.77
2022-08-20T10:16:02.131Z,1.27
2022-08-20T10:18:29.886Z,2.08
2022-08-20T10:20:57.591Z,1.75
2022-08-20T10:23:25.175Z,1.30
2022-08-20T10:25:52.855Z,1.10
2022-08-20T10:28:20.495Z,1.90
2022-08-20T10:30:48.135Z,1.48
2022-08-20T10:33:15.791Z,1.17
2022-08-20T10:35:43.419Z,1.08
2022-08-20T10:38:11.074Z,1.30
2022-08-20T10:40:38.815Z,1.48
2022-08-20T10:43:06.493Z,1.42
2022-08-20T10:45:34.152Z,1.20
2022-08-20T10:48:04.161Z,1.27
2022-08-20T10:50:31.748Z,1.20
2022-08-20T10:52:59.476Z,1.17
2022-08-20T10:55:27.082Z,1.27
2022-08-20T10:57:54.709Z,0.90
2022-08-20T11:00:22.697Z,1.30
2022-08-20T11:02:50.771Z,1.65
2022-08-20T11:05:18.841Z,1.08
2022-08-20T11:07:55.671Z,0.90
2022-08-20T11:10:25.491Z,0.95
2022-08-20T11:12:53.198Z,1.10
2022-08-20T11:15:22.165Z,1.20
2022-08-20T11:17:49.897Z,1.42
2022-08-20T11:20:18.944Z,1.00
2022-08-20T11:22:46.953Z,1.25
2022-08-20T11:25:14.851Z,1.45
2022-08-20T11:27:45.068Z,1.13
2022-08-20T11:30:14.779Z,1.00
2022-08-20T11:32:42.403Z,1.10
2022-08-20T11:35:40.397Z,1.10
2022-08-20T11:37:58.755Z,1.30
2022-08-20T11:40:27.527Z,1.10
2022-08-20T11:45:43.752Z,0.60
2022-08-20T11:48:11.370Z,0.80
2022-08-20T11:50:39.103Z,0.90
2022-08-20T11:53:08.031Z,0.68
2022-08-20T11:55:36.309Z,0.88
2022-08-20T11:58:04.995Z,0.60
2022-08-20T12:00:34.196Z,0.68
2022-08-20T12:03:04.982Z,0.90
2022-08-20T12:05:33.806Z,0.90
2022-08-20T12:08:02.104Z,0.85
2022-08-20T12:10:30.060Z,1.40
2022-08-20T12:12:57.982Z,1.15
2022-08-20T12:15:26.881Z,0.90
2022-08-20T12:17:54.721Z,1.00
2022-08-20T12:20:23.691Z,0.80
2022-08-20T12:22:51.426Z,1.42
2022-08-20T12:25:19.172Z,1.30
2022-08-20T12:27:47.499Z,1.00
2022-08-20T12:30:17.086Z,1.25
2022-08-20T12:32:44.825Z,1.00
2022-08-20T12:35:13.286Z,0.90
2022-08-20T12:37:40.993Z,1.10
2022-08-20T12:40:11.171Z,0.65
2022-08-20T12:42:38.889Z,0.80
2022-08-20T12:45:07.308Z,0.80
2022-08-20T12:47:36.337Z,0.70
2022-08-20T12:50:06.051Z,0.75
2022-08-20T12:52:34.197Z,0.90
2022-08-20T12:55:02.240Z,0.90
2022-08-20T12:57:36.998Z,0.80
2022-08-20T13:00:09.413Z,0.70
2022-08-20T13:02:38.803Z,0.63
2022-08-20T13:05:06.994Z,0.85
2022-08-20T13:07:34.975Z,1.00
2022-08-20T13:10:02.765Z,1.20
2022-08-20T13:12:30.933Z,0.60
2022-08-20T13:14:58.550Z,0.63
2022-08-20T13:17:38.371Z,0.73
2022-08-20T13:20:14.891Z,0.60
2022-08-20T13:22:42.696Z,0.75
2022-08-20T13:25:11.435Z,0.80
2022-08-20T13:27:40.609Z,0.73
2022-08-20T13:30:08.793Z,0.73
2022-08-20T13:32:36.574Z,0.90
2022-08-20T13:35:04.505Z,0.60
2022-08-20T13:37:32.214Z,0.90
2022-08-20T13:40:00.205Z,0.60
2022-08-20T13:42:28.117Z,1.02
2022-08-20T13:44:55.833Z,0.70
2022-08-20T13:47:25.022Z,0.85
2022-08-20T13:49:57.049Z,0.60
2022-08-20T13:52:25.110Z,1.13
2022-08-20T13:54:53.817Z,0.90
2022-08-20T13:57:22.669Z,1.00
2022-08-20T13:59:51.868Z,0.80
2022-08-20T14:02:19.508Z,0.95
2022-08-20T14:04:48.058Z,0.90
2022-08-20T14:07:20.337Z,0.70
2022-08-20T14:09:49.319Z,0.85
2022-08-20T14:12:17.001Z,0.98
2022-08-20T14:14:45.057Z,0.82
2022-08-20T14:17:24.497Z,0.80
2022-08-20T14:19:53.078Z,0.77
2022-08-20T14:22:20.822Z,0.73
2022-08-20T14:24:49.913Z,0.70
2022-08-20T14:27:19.402Z,1.05
2022-08-20T14:29:47.617Z,0.60
2022-08-20T14:32:15.449Z,0.88
2022-08-20T14:34:43.460Z,0.85
2022-08-20T14:37:11.073Z,0.70
2022-08-20T14:39:38.828Z,0.57
2022-08-20T14:42:06.770Z,0.80
2022-08-20T14:44:34.546Z,0.70
2022-08-20T14:47:16.566Z,0.60
2022-08-20T14:49:44.786Z,0.80
2022-08-20T14:52:13.246Z,1.00
2022-08-20T14:54:41.402Z,1.08
2022-08-20T14:57:13.402Z,0.80
2022-08-20T14:59:41.440Z,0.75
2022-08-20T15:02:10.207Z,0.82
2022-08-20T15:04:37.912Z,0.80
2022-08-20T15:07:07.996Z,0.60
2022-08-20T15:09:38.634Z,0.63
2022-08-20T15:12:06.365Z,0.60
2022-08-20T15:14:34.019Z,0.50
2022-08-20T15:17:06.993Z,0.60
2022-08-20T15:19:35.850Z,0.60
2022-08-20T15:22:03.455Z,0.70
2022-08-20T15:24:31.091Z,0.73
2022-08-20T15:26:58.720Z,0.95
2022-08-20T15:29:26.347Z,0.80
2022-08-20T15:31:53.922Z,0.63
2022-08-20T15:34:21.536Z,0.65
2022-08-20T15:36:49.172Z,0.60
2022-08-20T15:39:16.819Z,0.70
2022-08-20T15:41:44.426Z,0.63
2022-08-20T15:44:12.147Z,1.10
2022-08-20T15:46:39.828Z,0.77
2022-08-20T15:49:11.619Z,0.90
2022-08-20T15:54:08.535Z,0.80
2022-08-20T15:56:36.235Z,0.95
2022-08-20T15:59:24.122Z,0.70
2022-08-20T16:02:03.143Z,0.68
2022-08-20T16:04:30.804Z,0.60
2022-08-20T16:07:01.437Z,1.30
2022-08-20T16:09:42.266Z,1.00
2022-08-20T16:12:12.192Z,0.90
2022-08-20T16:14:44.468Z,0.95
2022-08-20T16:17:14.413Z,1.02
2022-08-20T16:19:41.994Z,0.82
2022-08-20T16:22:12.787Z,1.10
2022-08-20T16:24:40.479Z,1.02
2022-08-20T16:27:13.348Z,0.80
2022-08-20T16:29:46.858Z,1.00
2022-08-20T16:32:19.498Z,1.05
2022-08-20T16:34:59.293Z,1.05
2022-08-20T16:37:38.935Z,0.70
2022-08-20T16:40:12.729Z,0.82
2022-08-20T16:42:41.559Z,1.15
2022-08-20T16:45:13.739Z,1.00
2022-08-20T16:47:41.582Z,1.17
2022-08-20T16:50:16.213Z,1.10
2022-08-20T16:52:45.391Z,1.23
2022-08-20T16:55:13.517Z,1.20
2022-08-20T16:57:41.242Z,1.45
2022-08-20T17:00:14.881Z,1.52
2022-08-20T17:02:57.809Z,2.22
2022-08-20T17:05:27.525Z,1.70
2022-08-20T17:08:00.634Z,1.50
2022-08-20T17:10:32.852Z,1.45
2022-08-20T17:13:05.899Z,1.60
2022-08-20T17:15:35.234Z,1.73
2022-08-20T17:18:21.996Z,1.85
2022-08-20T17:20:49.666Z,1.60
2022-08-20T17:23:18.514Z,1.55
2022-08-20T17:25:47.661Z,1.88
2022-08-20T17:28:16.374Z,1.45
2022-08-20T17:30:44.132Z,1.25
2022-08-20T17:33:24.741Z,1.50
2022-08-20T17:35:53.633Z,1.70
2022-08-20T17:38:41.530Z,1.58
2022-08-20T17:41:16.576Z,1.30
2022-08-20T17:43:45.713Z,1.20
2022-08-20T17:46:18.235Z,1.30
2022-08-20T17:48:47.581Z,1.20
2022-08-20T17:51:23.150Z,1.50
2022-08-20T17:53:52.196Z,1.38
2022-08-20T17:56:19.787Z,1.40
2022-08-20T17:58:54.616Z,2.00
2022-08-20T18:01:24.202Z,1.70
2022-08-20T18:03:53.005Z,1.50
2022-08-20T18:06:20.640Z,1.50
2022-08-20T18:09:11.305Z,1.50
2022-08-20T18:12:01.397Z,1.75
2022-08-20T18:14:43.071Z,1.60
2022-08-20T18:17:34.416Z,1.42
2022-08-20T18:20:02.054Z,1.58
2022-08-20T18:22:31.793Z,1.50
2022-08-20T18:25:18.681Z,1.33
2022-08-20T18:27:52.127Z,1.05
2022-08-20T18:30:21.788Z,1.27
2022-08-20T18:32:51.382Z,1.45
2022-08-20T18:35:33.761Z,1.33
2022-08-20T18:38:30.651Z,1.42
2022-08-20T18:41:12.787Z,1.00
2022-08-20T18:43:41.062Z,1.00
2022-08-20T18:46:13.869Z,1.50
2022-08-20T18:48:51.065Z,1.60
2022-08-20T18:51:20.542Z,1.80
2022-08-20T18:53:51.851Z,1.42
2022-08-20T18:56:30.071Z,3.05
2022-08-20T18:58:57.691Z,2.03
2022-08-20T19:01:25.371Z,2.10
2022-08-20T19:03:54.464Z,2.63
2022-08-20T19:06:22.202Z,2.50
2022-08-20T19:08:51.483Z,2.50
2022-08-20T19:11:31.337Z,2.95
2022-08-20T19:14:08.085Z,2.28
2022-08-20T19:16:44.574Z,2.00
2022-08-20T19:19:19.360Z,1.50
2022-08-20T19:21:47.113Z,1.63
2022-08-20T19:24:17.154Z,2.00
2022-08-20T19:26:47.498Z,2.17
2022-08-20T19:29:18.797Z,6.90
2022-08-20T19:31:47.002Z,6.32
2022-08-20T19:34:26.357Z,3.45
2022-08-20T19:37:10.172Z,3.40
2022-08-20T19:39:53.290Z,7.28
2022-08-20T19:42:23.523Z,6.05
2022-08-20T19:44:55.441Z,4.60
2022-08-20T19:47:26.162Z,15.57
2022-08-20T19:50:05.465Z,17.42
2022-08-20T19:52:41.177Z,12.45
2022-08-20T19:55:32.262Z,5.68
2022-08-20T19:58:01.560Z,3.67
2022-08-20T20:00:30.713Z,3.53
2022-08-20T20:03:08.405Z,2.90
2022-08-20T20:05:36.070Z,3.08
2022-08-20T20:08:04.533Z,3.72
2022-08-20T20:10:33.991Z,3.97
2022-08-20T20:13:12.462Z,4.13
2022-08-20T20:15:40.691Z,3.97
2022-08-20T20:18:09.093Z,3.75
2022-08-20T20:20:56.969Z,3.20
2022-08-20T20:23:45.467Z,3.30
2022-08-20T20:26:17.362Z,3.13
2022-08-20T20:28:48.069Z,3.28
2022-08-20T20:31:21.872Z,3.97
2022-08-20T20:33:52.838Z,3.47
2022-08-20T20:36:33.090Z,3.47
2022-08-20T20:39:04.500Z,2.58
2022-08-20T20:41:33.214Z,2.95
2022-08-20T20:44:02.493Z,2.90
2022-08-20T20:46:31.485Z,2.78
2022-08-20T20:48:59.069Z,2.85
2022-08-20T20:51:33.809Z,2.92
2022-08-20T20:54:03.767Z,2.42
2022-08-20T20:56:33.837Z,2.75
2022-08-20T20:59:06.271Z,2.40
2022-08-20T21:01:48.103Z,2.28
2022-08-20T21:04:17.842Z,1.75
2022-08-20T21:06:45.926Z,2.00
2022-08-20T21:09:13.643Z,2.35
2022-08-20T21:11:41.328Z,1.80
2022-08-20T21:14:08.941Z,2.08
2022-08-20T21:16:36.642Z,2.33
2022-08-20T21:19:07.603Z,2.47
2022-08-20T21:21:36.796Z,2.20
2022-08-20T21:24:05.101Z,2.38
2022-08-20T21:26:32.936Z,1.90
2022-08-20T21:29:00.636Z,2.08
2022-08-20T21:31:31.037Z,1.60
2022-08-20T21:33:58.648Z,1.73
2022-08-20T21:36:26.248Z,2.10
2022-08-20T21:38:53.917Z,1.98
2022-08-20T21:41:30.082Z,1.98
2022-08-20T21:44:10.756Z,2.13
2022-08-20T21:46:38.409Z,1.95
2022-08-20T21:49:06.241Z,2.20
2022-08-20T21:51:35.358Z,2.10
2022-08-20T21:54:03.101Z,2.30
2022-08-20T21:56:32.228Z,2.50
2022-08-20T21:59:00.724Z,1.98
2022-08-20T22:01:28.536Z,2.30
2022-08-20T22:03:56.225Z,2.30
2022-08-20T22:06:24.562Z,1.80
2022-08-20T22:08:52.169Z,2.20
2022-08-20T22:11:20.678Z,2.00
2022-08-20T22:13:48.380Z,2.03
2022-08-20T22:16:18.447Z,1.92
2022-08-20T22:18:46.664Z,1.95
2022-08-20T22:21:19.149Z,2.00
2022-08-20T22:23:47.428Z,1.75
2022-08-20T22:26:15.482Z,1.90
2022-08-20T22:28:43.358Z,1.98
2022-08-20T22:31:11.539Z,1.70
2022-08-20T22:33:39.474Z,2.58
2022-08-20T22:36:07.517Z,2.10
2022-08-20T22:38:35.161Z,1.88
2022-08-20T22:41:06.310Z,1.88
2022-08-20T22:43:36.641Z,1.63
2022-08-20T22:46:15.088Z,1.70
2022-08-20T22:48:43.499Z,1.77
2022-08-20T22:51:14.273Z,1.45
2022-08-20T22:53:45.496Z,1.42
2022-08-20T22:56:21.871Z,1.50
2022-08-20T22:58:50.971Z,1.88
2022-08-20T23:01:19.535Z,1.17
2022-08-20T23:03:47.228Z,1.30
2022-08-20T23:06:15.019Z,1.65
2022-08-20T23:08:42.998Z,1.40
2022-08-20T23:11:10.613Z,1.60
2022-08-20T23:13:38.664Z,1.75
2022-08-20T23:16:07.466Z,1.90
2022-08-20T23:18:35.336Z,1.88
2022-08-20T23:21:03.301Z,1.77
2022-08-20T23:23:31.170Z,1.55
2022-08-20T23:25:58.854Z,1.63
2022-08-20T23:28:27.009Z,1.73
2022-08-20T23:30:54.633Z,1.60
2022-08-20T23:33:22.942Z,1.67
2022-08-20T23:35:50.929Z,1.38
2022-08-20T23:38:20.394Z,1.70
2022-08-20T23:40:48.045Z,1.90
2022-08-20T23:43:15.717Z,1.73
2022-08-20T23:45:43.500Z,1.70
2022-08-20T23:48:11.162Z,1.70
2022-08-20T23:50:39.272Z,2.00
2022-08-20T23:53:06.899Z,2.00
2022-08-20T23:55:34.772Z,1.70
2022-08-20T23:58:02.664Z,2.00
